sensor_id;sensor_type;location;lat;lon;timestamp;P1;durP1;ratioP1;P2;durP2;ratioP2
40983;SDS011;26714;51.332;12.406;2024-03-02T00:02:42;54.05;;;22.92;;
40983;SDS011;26714;51.332;12.406;2024-03-02T00:05:24;46.03;;;21.48;;
40983;SDS011;26714;51.332;12.406;2024-03-02T00:07:58;44.53;;;20.40;;
40983;SDS011;26714;51.332;12.406;2024-03-02T00:10:36;48.78;;;21.90;;
40983;SDS011;26714;51.332;12.406;2024-03-02T00:13:14;54.08;;;22.65;;
40983;SDS011;26714;51.332;12.406;2024-03-02T00:16:36;47.90;;;20.85;;
40983;SDS011;26714;51.332;12.406;2024-03-02T00:19:10;44.55;;;21.98;;
40983;SDS011;26714;51.332;12.406;2024-03-02T00:21:48;47.00;;;21.55;;
40983;SDS011;26714;51.332;12.406;2024-03-02T00:24:35;46.53;;;21.95;;
40983;SDS011;26714;51.332;12.406;2024-03-02T00:27:15;41.28;;;20.40;;
40983;SDS011;26714;51.332;12.406;2024-03-02T00:34:02;43.00;;;20.15;;
40983;SDS011;26714;51.332;12.406;2024-03-02T00:36:49;43.47;;;21.17;;
40983;SDS011;26714;51.332;12.406;2024-03-02T00:39:20;45.33;;;21.70;;
40983;SDS011;26714;51.332;12.406;2024-03-02T00:42:01;38.78;;;19.92;;
40983;SDS011;26714;51.332;12.406;2024-03-02T00:44:40;41.50;;;19.90;;
40983;SDS011;26714;51.332;12.406;2024-03-02T00:47:31;51.85;;;22.38;;
40983;SDS011;26714;51.332;12.406;2024-03-02T00:50:05;39.28;;;19.95;;
40983;SDS011;26714;51.332;12.406;2024-03-02T00:52:49;36.80;;;19.30;;
40983;SDS011;26714;51.332;12.406;2024-03-02T00:55:19;43.08;;;19.58;;
40983;SDS011;26714;51.332;12.406;2024-03-02T00:57:54;45.13;;;21.40;;
40983;SDS011;26714;51.332;12.406;2024-03-02T01:00:32;46.15;;;19.20;;
40983;SDS011;26714;51.332;12.406;2024-03-02T01:03:00;41.20;;;20.58;;
40983;SDS011;26714;51.332;12.406;2024-03-02T01:05:30;42.45;;;20.75;;
40983;SDS011;26714;51.332;12.406;2024-03-02T01:08:06;38.83;;;18.70;;
40983;SDS011;26714;51.332;12.406;2024-03-02T01:10:45;41.72;;;19.80;;
40983;SDS011;26714;51.332;12.406;2024-03-02T01:13:25;38.20;;;18.67;;
40983;SDS011;26714;51.332;12.406;2024-03-02T01:15:57;40.20;;;18.67;;
40983;SDS011;26714;51.332;12.406;2024-03-02T01:18:30;40.08;;;19.60;;
40983;SDS011;26714;51.332;12.406;2024-03-02T01:21:02;37.05;;;17.90;;
40983;SDS011;26714;51.332;12.406;2024-03-02T01:23:42;38.83;;;17.40;;
40983;SDS011;26714;51.332;12.406;2024-03-02T01:26:27;38.15;;;18.40;;
40983;SDS011;26714;51.332;12.406;2024-03-02T01:29:03;37.40;;;17.08;;
40983;SDS011;26714;51.332;12.406;2024-03-02T01:31:33;38.53;;;18.67;;
40983;SDS011;26714;51.332;12.406;2024-03-02T01:34:22;36.95;;;17.48;;
40983;SDS011;26714;51.332;12.406;2024-03-02T01:37:06;38.13;;;17.58;;
40983;SDS011;26714;51.332;12.406;2024-03-02T01:40:03;36.67;;;18.02;;
40983;SDS011;26714;51.332;12.406;2024-03-02T01:43:06;39.00;;;16.88;;
40983;SDS011;26714;51.332;12.406;2024-03-02T01:45:46;33.15;;;16.65;;
40983;SDS011;26714;51.332;12.406;2024-03-02T01:48:23;35.08;;;16.88;;
40983;SDS011;26714;51.332;12.406;2024-03-02T01:51:00;33.95;;;17.27;;
40983;SDS011;26714;51.332;12.406;2024-03-02T01:53:38;30.17;;;15.88;;
40983;SDS011;26714;51.332;12.406;2024-03-02T01:56:08;31.60;;;15.50;;
40983;SDS011;26714;51.332;12.406;2024-03-02T01:58:56;34.97;;;16.48;;
40983;SDS011;26714;51.332;12.406;2024-03-02T02:01:49;30.95;;;16.35;;
40983;SDS011;26714;51.332;12.406;2024-03-02T02:04:29;35.10;;;16.77;;
40983;SDS011;26714;51.332;12.406;2024-03-02T02:07:24;34.38;;;15.57;;
40983;SDS011;26714;51.332;12.406;2024-03-02T02:10:04;32.25;;;16.25;;
40983;SDS011;26714;51.332;12.406;2024-03-02T02:12:34;31.60;;;15.13;;
40983;SDS011;26714;51.332;12.406;2024-03-02T02:15:21;31.45;;;15.48;;
40983;SDS011;26714;51.332;12.406;2024-03-02T02:17:58;33.33;;;16.60;;
40983;SDS011;26714;51.332;12.406;2024-03-02T02:21:03;30.52;;;14.63;;
40983;SDS011;26714;51.332;12.406;2024-03-02T02:24:04;31.95;;;15.13;;
40983;SDS011;26714;51.332;12.406;2024-03-02T02:26:57;26.42;;;13.57;;
40983;SDS011;26714;51.332;12.406;2024-03-02T02:29:34;30.08;;;15.15;;
40983;SDS011;26714;51.332;12.406;2024-03-02T02:32:26;29.30;;;14.77;;
40983;SDS011;26714;51.332;12.406;2024-03-02T02:39:11;29.08;;;13.80;;
40983;SDS011;26714;51.332;12.406;2024-03-02T02:42:14;30.75;;;13.95;;
40983;SDS011;26714;51.332;12.406;2024-03-02T02:45:06;27.10;;;13.20;;
40983;SDS011;26714;51.332;12.406;2024-03-02T02:47:54;34.22;;;14.75;;
40983;SDS011;26714;51.332;12.406;2024-03-02T02:50:36;30.02;;;14.52;;
40983;SDS011;26714;51.332;12.406;2024-03-02T02:53:20;30.35;;;13.85;;
40983;SDS011;26714;51.332;12.406;2024-03-02T02:55:50;32.20;;;14.73;;
40983;SDS011;26714;51.332;12.406;2024-03-02T02:58:26;30.50;;;13.70;;
40983;SDS011;26714;51.332;12.406;2024-03-02T03:01:15;31.00;;;13.65;;
40983;SDS011;26714;51.332;12.406;2024-03-02T03:04:02;32.70;;;14.07;;
40983;SDS011;26714;51.332;12.406;2024-03-02T03:06:41;28.83;;;14.00;;
40983;SDS011;26714;51.332;12.406;2024-03-02T03:09:29;27.42;;;14.20;;
40983;SDS011;26714;51.332;12.406;2024-03-02T03:12:17;29.27;;;13.90;;
40983;SDS011;26714;51.332;12.406;2024-03-02T03:14:55;26.02;;;13.68;;
40983;SDS011;26714;51.332;12.406;2024-03-02T03:17:28;32.10;;;13.52;;
40983;SDS011;26714;51.332;12.406;2024-03-02T03:20:01;26.30;;;13.30;;
40983;SDS011;26714;51.332;12.406;2024-03-02T03:22:34;27.02;;;14.25;;
40983;SDS011;26714;51.332;12.406;2024-03-02T03:25:32;33.20;;;15.05;;
40983;SDS011;26714;51.332;12.406;2024-03-02T03:28:05;29.17;;;13.00;;
40983;SDS011;26714;51.332;12.406;2024-03-02T03:30:48;29.70;;;14.32;;
40983;SDS011;26714;51.332;12.406;2024-03-02T03:33:40;25.38;;;13.45;;
40983;SDS011;26714;51.332;12.406;2024-03-02T03:36:19;28.55;;;14.27;;
40983;SDS011;26714;51.332;12.406;2024-03-02T03:42:15;26.88;;;13.20;;
40983;SDS011;26714;51.332;12.406;2024-03-02T03:44:44;29.60;;;13.77;;
40983;SDS011;26714;51.332;12.406;2024-03-02T03:47:20;25.02;;;13.23;;
40983;SDS011;26714;51.332;12.406;2024-03-02T03:49:55;29.50;;;13.20;;
40983;SDS011;26714;51.332;12.406;2024-03-02T03:52:30;28.17;;;13.38;;
40983;SDS011;26714;51.332;12.406;2024-03-02T03:55:02;26.55;;;12.98;;
40983;SDS011;26714;51.332;12.406;2024-03-02T03:57:40;25.02;;;13.23;;
40983;SDS011;26714;51.332;12.406;2024-03-02T04:00:17;29.75;;;13.10;;
40983;SDS011;26714;51.332;12.406;2024-03-02T04:02:50;25.77;;;13.00;;
40983;SDS011;26714;51.332;12.406;2024-03-02T04:07:49;29.50;;;14.00;;
40983;SDS011;26714;51.332;12.406;2024-03-02T04:10:21;32.88;;;15.07;;
40983;SDS011;26714;51.332;12.406;2024-03-02T04:12:57;34.60;;;13.82;;
40983;SDS011;26714;51.332;12.406;2024-03-02T04:15:33;32.20;;;14.63;;
40983;SDS011;26714;51.332;12.406;2024-03-02T04:18:10;38.63;;;16.38;;
40983;SDS011;26714;51.332;12.406;2024-03-02T04:21:03;30.42;;;14.38;;
40983;SDS011;26714;51.332;12.406;2024-03-02T04:24:01;33.17;;;14.93;;
40983;SDS011;26714;51.332;12.406;2024-03-02T04:26:36;31.52;;;14.05;;
40983;SDS011;26714;51.332;12.406;2024-03-02T04:31:40;30.65;;;14.27;;
40983;SDS011;26714;51.332;12.406;2024-03-02T04:34:18;32.70;;;14.00;;
40983;SDS011;26714;51.332;12.406;2024-03-02T04:36:55;29.58;;;13.95;;
40983;SDS011;26714;51.332;12.406;2024-03-02T04:39:30;32.42;;;14.73;;
40983;SDS011;26714;51.332;12.406;2024-03-02T04:42:01;30.60;;;14.93;;
40983;SDS011;26714;51.332;12.406;2024-03-02T04:47:03;30.50;;;13.65;;
40983;SDS011;26714;51.332;12.406;2024-03-02T04:49:35;35.97;;;14.85;;
40983;SDS011;26714;51.332;12.406;2024-03-02T04:52:04;33.63;;;15.95;;
40983;SDS011;26714;51.332;12.406;2024-03-02T04:54:40;34.33;;;15.45;;
40983;SDS011;26714;51.332;12.406;2024-03-02T04:57:34;28.17;;;14.27;;
40983;SDS011;26714;51.332;12.406;2024-03-02T05:00:04;32.58;;;14.35;;
40983;SDS011;26714;51.332;12.406;2024-03-02T05:02:39;34.33;;;14.95;;
40983;SDS011;26714;51.332;12.406;2024-03-02T05:05:39;28.52;;;13.93;;
40983;SDS011;26714;51.332;12.406;2024-03-02T05:08:21;29.90;;;14.18;;
40983;SDS011;26714;51.332;12.406;2024-03-02T05:10:51;30.58;;;14.73;;
40983;SDS011;26714;51.332;12.406;2024-03-02T05:13:47;29.48;;;14.25;;
40983;SDS011;26714;51.332;12.406;2024-03-02T05:16:27;34.72;;;14.95;;
40983;SDS011;26714;51.332;12.406;2024-03-02T05:18:59;34.70;;;14.27;;
40983;SDS011;26714;51.332;12.406;2024-03-02T05:21:41;28.00;;;13.82;;
40983;SDS011;26714;51.332;12.406;2024-03-02T05:24:26;32.90;;;15.13;;
40983;SDS011;26714;51.332;12.406;2024-03-02T05:27:00;31.08;;;15.35;;
40983;SDS011;26714;51.332;12.406;2024-03-02T05:29:37;29.05;;;14.18;;
40983;SDS011;26714;51.332;12.406;2024-03-02T05:32:53;31.42;;;14.02;;
40983;SDS011;26714;51.332;12.406;2024-03-02T05:35:33;28.33;;;14.43;;
40983;SDS011;26714;51.332;12.406;2024-03-02T05:38:30;31.77;;;14.82;;
40983;SDS011;26714;51.332;12.406;2024-03-02T05:41:14;35.08;;;15.02;;
40983;SDS011;26714;51.332;12.406;2024-03-02T05:44:10;29.27;;;14.55;;
40983;SDS011;26714;51.332;12.406;2024-03-02T05:46:56;28.30;;;14.02;;
40983;SDS011;26714;51.332;12.406;2024-03-02T05:49:32;30.48;;;14.15;;
40983;SDS011;26714;51.332;12.406;2024-03-02T05:52:07;31.77;;;14.68;;
40983;SDS011;26714;51.332;12.406;2024-03-02T05:54:46;31.30;;;13.43;;
40983;SDS011;26714;51.332;12.406;2024-03-02T05:57:26;30.60;;;13.70;;
40983;SDS011;26714;51.332;12.406;2024-03-02T06:00:16;28.38;;;14.38;;
40983;SDS011;26714;51.332;12.406;2024-03-02T06:02:47;27.77;;;14.95;;
40983;SDS011;26714;51.332;12.406;2024-03-02T06:05:18;30.80;;;15.02;;
40983;SDS011;26714;51.332;12.406;2024-03-02T06:07:50;35.47;;;15.57;;
40983;SDS011;26714;51.332;12.406;2024-03-02T06:10:23;29.80;;;14.00;;
40983;SDS011;26714;51.332;12.406;2024-03-02T06:12:53;34.58;;;15.27;;
40983;SDS011;26714;51.332;12.406;2024-03-02T06:15:27;29.98;;;15.20;;
40983;SDS011;26714;51.332;12.406;2024-03-02T06:18:11;33.95;;;15.70;;
40983;SDS011;26714;51.332;12.406;2024-03-02T06:20:48;31.70;;;15.30;;
40983;SDS011;26714;51.332;12.406;2024-03-02T06:23:19;34.55;;;15.43;;
40983;SDS011;26714;51.332;12.406;2024-03-02T06:25:57;34.13;;;15.93;;
40983;SDS011;26714;51.332;12.406;2024-03-02T06:28:28;34.83;;;15.55;;
40983;SDS011;26714;51.332;12.406;2024-03-02T06:34:00;31.92;;;16.52;;
40983;SDS011;26714;51.332;12.406;2024-03-02T06:36:32;35.85;;;16.80;;
40983;SDS011;26714;51.332;12.406;2024-03-02T06:39:07;36.50;;;16.73;;
40983;SDS011;26714;51.332;12.406;2024-03-02T06:41:40;38.00;;;16.50;;
40983;SDS011;26714;51.332;12.406;2024-03-02T06:44:18;35.28;;;17.10;;
40983;SDS011;26714;51.332;12.406;2024-03-02T06:47:06;35.50;;;16.33;;
40983;SDS011;26714;51.332;12.406;2024-03-02T06:50:07;33.78;;;17.15;;
40983;SDS011;26714;51.332;12.406;2024-03-02T06:52:39;40.05;;;16.10;;
40983;SDS011;26714;51.332;12.406;2024-03-02T06:55:12;35.22;;;17.17;;
40983;SDS011;26714;51.332;12.406;2024-03-02T06:57:54;35.15;;;17.23;;
40983;SDS011;26714;51.332;12.406;2024-03-02T07:00:35;34.50;;;16.52;;
40983;SDS011;26714;51.332;12.406;2024-03-02T07:03:09;37.17;;;16.42;;
40983;SDS011;26714;51.332;12.406;2024-03-02T07:05:53;40.58;;;18.67;;
40983;SDS011;26714;51.332;12.406;2024-03-02T07:08:36;34.45;;;15.50;;
40983;SDS011;26714;51.332;12.406;2024-03-02T07:11:32;32.78;;;15.15;;
40983;SDS011;26714;51.332;12.406;2024-03-02T07:14:50;37.28;;;15.60;;
40983;SDS011;26714;51.332;12.406;2024-03-02T07:17:43;30.10;;;14.85;;
40983;SDS011;26714;51.332;12.406;2024-03-02T07:20:29;30.23;;;14.80;;
40983;SDS011;26714;51.332;12.406;2024-03-02T07:23:38;34.70;;;16.23;;
40983;SDS011;26714;51.332;12.406;2024-03-02T07:26:42;36.50;;;15.73;;
40983;SDS011;26714;51.332;12.406;2024-03-02T07:29:31;34.80;;;15.98;;
40983;SDS011;26714;51.332;12.406;2024-03-02T07:32:33;32.30;;;15.25;;
40983;SDS011;26714;51.332;12.406;2024-03-02T07:35:37;39.92;;;16.50;;
40983;SDS011;26714;51.332;12.406;2024-03-02T07:38:23;33.75;;;14.10;;
40983;SDS011;26714;51.332;12.406;2024-03-02T07:41:21;33.38;;;15.18;;
40983;SDS011;26714;51.332;12.406;2024-03-02T07:44:00;33.38;;;14.32;;
40983;SDS011;26714;51.332;12.406;2024-03-02T07:46:41;30.95;;;15.13;;
40983;SDS011;26714;51.332;12.406;2024-03-02T07:49:23;28.67;;;14.90;;
40983;SDS011;26714;51.332;12.406;2024-03-02T07:52:03;32.15;;;15.32;;
40983;SDS011;26714;51.332;12.406;2024-03-02T07:54:39;28.63;;;14.52;;
40983;SDS011;26714;51.332;12.406;2024-03-02T07:57:45;32.90;;;14.98;;
40983;SDS011;26714;51.332;12.406;2024-03-02T08:00:20;33.75;;;15.25;;
40983;SDS011;26714;51.332;12.406;2024-03-02T08:03:06;33.55;;;15.38;;
40983;SDS011;26714;51.332;12.406;2024-03-02T08:05:55;31.05;;;15.30;;
40983;SDS011;26714;51.332;12.406;2024-03-02T08:08:37;35.63;;;15.60;;
40983;SDS011;26714;51.332;12.406;2024-03-02T08:11:21;29.77;;;13.68;;
40983;SDS011;26714;51.332;12.406;2024-03-02T08:14:01;30.33;;;14.75;;
40983;SDS011;26714;51.332;12.406;2024-03-02T08:17:01;28.25;;;14.00;;
40983;SDS011;26714;51.332;12.406;2024-03-02T08:20:19;29.92;;;14.05;;
40983;SDS011;26714;51.332;12.406;2024-03-02T08:24:05;34.03;;;15.52;;
40983;SDS011;26714;51.332;12.406;2024-03-02T08:27:15;34.53;;;15.98;;
40983;SDS011;26714;51.332;12.406;2024-03-02T08:30:07;31.55;;;15.50;;
40983;SDS011;26714;51.332;12.406;2024-03-02T08:32:51;33.85;;;16.13;;
40983;SDS011;26714;51.332;12.406;2024-03-02T08:35:39;27.67;;;14.13;;
40983;SDS011;26714;51.332;12.406;2024-03-02T08:44:36;30.58;;;14.63;;
40983;SDS011;26714;51.332;12.406;2024-03-02T08:47:20;34.30;;;15.52;;
40983;SDS011;26714;51.332;12.406;2024-03-02T08:49:52;34.78;;;15.68;;
40983;SDS011;26714;51.332;12.406;2024-03-02T08:52:23;28.52;;;13.98;;
40983;SDS011;26714;51.332;12.406;2024-03-02T08:54:52;33.10;;;16.80;;
40983;SDS011;26714;51.332;12.406;2024-03-02T08:57:24;33.42;;;16.00;;
40983;SDS011;26714;51.332;12.406;2024-03-02T08:59:53;33.65;;;17.42;;
40983;SDS011;26714;51.332;12.406;2024-03-02T09:02:21;35.28;;;16.60;;
40983;SDS011;26714;51.332;12.406;2024-03-02T09:04:53;36.70;;;16.50;;
40983;SDS011;26714;51.332;12.406;2024-03-02T09:07:20;35.55;;;16.27;;
40983;SDS011;26714;51.332;12.406;2024-03-02T09:10:01;34.70;;;16.38;;
40983;SDS011;26714;51.332;12.406;2024-03-02T09:13:13;36.88;;;16.50;;
40983;SDS011;26714;51.332;12.406;2024-03-02T09:16:08;35.95;;;16.27;;
40983;SDS011;26714;51.332;12.406;2024-03-02T09:19:06;31.10;;;16.27;;
40983;SDS011;26714;51.332;12.406;2024-03-02T09:26:20;31.00;;;14.57;;
40983;SDS011;26714;51.332;12.406;2024-03-02T09:29:46;31.13;;;13.77;;
40983;SDS011;26714;51.332;12.406;2024-03-02T09:33:43;31.20;;;14.55;;
40983;SDS011;26714;51.332;12.406;2024-03-02T09:37:06;28.58;;;14.68;;
40983;SDS011;26714;51.332;12.406;2024-03-02T09:39:48;32.42;;;15.55;;
40983;SDS011;26714;51.332;12.406;2024-03-02T09:42:37;31.30;;;14.80;;
40983;SDS011;26714;51.332;12.406;2024-03-02T09:45:10;27.60;;;14.45;;
40983;SDS011;26714;51.332;12.406;2024-03-02T09:47:38;28.35;;;14.65;;
40983;SDS011;26714;51.332;12.406;2024-03-02T09:50:04;26.83;;;14.02;;
40983;SDS011;26714;51.332;12.406;2024-03-02T09:52:42;27.07;;;14.63;;
40983;SDS011;26714;51.332;12.406;2024-03-02T10:02:20;31.20;;;13.70;;
40983;SDS011;26714;51.332;12.406;2024-03-02T10:09:45;22.70;;;11.90;;
40983;SDS011;26714;51.332;12.406;2024-03-02T10:12:55;26.23;;;12.68;;
40983;SDS011;26714;51.332;12.406;2024-03-02T10:16:11;23.50;;;12.07;;
40983;SDS011;26714;51.332;12.406;2024-03-02T10:23:27;23.52;;;11.52;;
40983;SDS011;26714;51.332;12.406;2024-03-02T10:26:18;26.33;;;12.30;;
40983;SDS011;26714;51.332;12.406;2024-03-02T10:29:51;22.33;;;11.80;;
40983;SDS011;26714;51.332;12.406;2024-03-02T10:33:07;19.27;;;9.88;;
40983;SDS011;26714;51.332;12.406;2024-03-02T10:35:35;22.23;;;10.15;;
40983;SDS011;26714;51.332;12.406;2024-03-02T10:38:06;21.60;;;10.73;;
40983;SDS011;26714;51.332;12.406;2024-03-02T10:40:47;21.40;;;9.52;;
40983;SDS011;26714;51.332;12.406;2024-03-02T10:43:21;23.73;;;10.93;;
40983;SDS011;26714;51.332;12.406;2024-03-02T10:45:53;19.63;;;9.10;;
40983;SDS011;26714;51.332;12.406;2024-03-02T10:49:12;20.00;;;9.77;;
40983;SDS011;26714;51.332;12.406;2024-03-02T10:51:45;20.48;;;9.98;;
40983;SDS011;26714;51.332;12.406;2024-03-02T10:54:17;19.50;;;9.10;;
40983;SDS011;26714;51.332;12.406;2024-03-02T10:56:58;16.98;;;9.18;;
40983;SDS011;26714;51.332;12.406;2024-03-02T10:59:32;19.35;;;8.65;;
40983;SDS011;26714;51.332;12.406;2024-03-02T11:02:05;16.45;;;8.32;;
40983;SDS011;26714;51.332;12.406;2024-03-02T11:04:41;14.45;;;7.55;;
40983;SDS011;26714;51.332;12.406;2024-03-02T11:07:14;11.57;;;6.80;;
40983;SDS011;26714;51.332;12.406;2024-03-02T11:09:54;16.35;;;7.88;;
40983;SDS011;26714;51.332;12.406;2024-03-02T11:12:38;15.27;;;8.05;;
40983;SDS011;26714;51.332;12.406;2024-03-02T11:15:09;14.02;;;7.00;;
40983;SDS011;26714;51.332;12.406;2024-03-02T11:17:41;15.40;;;8.05;;
40983;SDS011;26714;51.332;12.406;2024-03-02T11:20:08;16.35;;;8.07;;
40983;SDS011;26714;51.332;12.406;2024-03-02T11:22:37;14.23;;;8.15;;
40983;SDS011;26714;51.332;12.406;2024-03-02T11:25:04;13.18;;;7.03;;
40983;SDS011;26714;51.332;12.406;2024-03-02T11:33:09;14.85;;;8.10;;
40983;SDS011;26714;51.332;12.406;2024-03-02T11:35:45;20.35;;;9.52;;
40983;SDS011;26714;51.332;12.406;2024-03-02T11:38:25;23.60;;;8.50;;
40983;SDS011;26714;51.332;12.406;2024-03-02T11:40:59;17.25;;;8.13;;
40983;SDS011;26714;51.332;12.406;2024-03-02T11:43:37;16.17;;;8.40;;
40983;SDS011;26714;51.332;12.406;2024-03-02T11:46:17;14.50;;;7.20;;
40983;SDS011;26714;51.332;12.406;2024-03-02T11:48:54;12.70;;;7.72;;
40983;SDS011;26714;51.332;12.406;2024-03-02T11:51:23;14.30;;;7.85;;
40983;SDS011;26714;51.332;12.406;2024-03-02T11:53:52;16.63;;;8.50;;
40983;SDS011;26714;51.332;12.406;2024-03-02T11:56:26;17.13;;;7.93;;
40983;SDS011;26714;51.332;12.406;2024-03-02T11:58:53;13.43;;;6.53;;
40983;SDS011;26714;51.332;12.406;2024-03-02T12:01:27;15.75;;;7.35;;
40983;SDS011;26714;51.332;12.406;2024-03-02T12:04:12;13.93;;;7.10;;
40983;SDS011;26714;51.332;12.406;2024-03-02T12:06:46;14.18;;;6.53;;
40983;SDS011;26714;51.332;12.406;2024-03-02T12:09:23;11.93;;;6.82;;
40983;SDS011;26714;51.332;12.406;2024-03-02T12:12:02;15.55;;;7.47;;
40983;SDS011;26714;51.332;12.406;2024-03-02T12:14:49;16.27;;;8.65;;
40983;SDS011;26714;51.332;12.406;2024-03-02T12:17:25;14.07;;;7.30;;
40983;SDS011;26714;51.332;12.406;2024-03-02T12:19:55;13.77;;;7.38;;
40983;SDS011;26714;51.332;12.406;2024-03-02T12:22:28;14.57;;;7.28;;
40983;SDS011;26714;51.332;12.406;2024-03-02T12:24:57;16.20;;;7.68;;
40983;SDS011;26714;51.332;12.406;2024-03-02T12:27:24;14.60;;;7.63;;
40983;SDS011;26714;51.332;12.406;2024-03-02T12:29:53;13.80;;;6.90;;
40983;SDS011;26714;51.332;12.406;2024-03-02T12:32:40;11.80;;;6.75;;
40983;SDS011;26714;51.332;12.406;2024-03-02T12:35:26;11.82;;;6.20;;
40983;SDS011;26714;51.332;12.406;2024-03-02T12:38:08;14.63;;;7.05;;
40983;SDS011;26714;51.332;12.406;2024-03-02T12:40:43;10.10;;;6.00;;
40983;SDS011;26714;51.332;12.406;2024-03-02T12:46:31;12.93;;;6.88;;
40983;SDS011;26714;51.332;12.406;2024-03-02T12:49:09;13.13;;;6.05;;
40983;SDS011;26714;51.332;12.406;2024-03-02T12:55:22;10.90;;;5.47;;
40983;SDS011;26714;51.332;12.406;2024-03-02T12:57:57;8.45;;;5.15;;
40983;SDS011;26714;51.332;12.406;2024-03-02T13:00:33;9.35;;;4.80;;
40983;SDS011;26714;51.332;12.406;2024-03-02T13:03:21;8.95;;;4.93;;
40983;SDS011;26714;51.332;12.406;2024-03-02T13:05:52;10.25;;;5.25;;
40983;SDS011;26714;51.332;12.406;2024-03-02T13:11:09;9.85;;;5.72;;
40983;SDS011;26714;51.332;12.406;2024-03-02T13:14:11;11.15;;;5.40;;
40983;SDS011;26714;51.332;12.406;2024-03-02T13:16:56;10.27;;;5.50;;
40983;SDS011;26714;51.332;12.406;2024-03-02T13:19:28;9.07;;;5.55;;
40983;SDS011;26714;51.332;12.406;2024-03-02T13:22:13;11.83;;;5.87;;
40983;SDS011;26714;51.332;12.406;2024-03-02T13:24:43;13.10;;;6.30;;
40983;SDS011;26714;51.332;12.406;2024-03-02T13:27:17;10.88;;;5.85;;
40983;SDS011;26714;51.332;12.406;2024-03-02T13:29:47;10.18;;;5.70;;
40983;SDS011;26714;51.332;12.406;2024-03-02T13:32:25;9.05;;;5.70;;
40983;SDS011;26714;51.332;12.406;2024-03-02T13:34:56;10.48;;;5.70;;
40983;SDS011;26714;51.332;12.406;2024-03-02T13:38:01;13.02;;;6.88;;
40983;SDS011;26714;51.332;12.406;2024-03-02T13:40:41;10.85;;;5.82;;
40983;SDS011;26714;51.332;12.406;2024-03-02T13:43:12;9.23;;;5.28;;
40983;SDS011;26714;51.332;12.406;2024-03-02T13:45:40;9.25;;;5.32;;
40983;SDS011;26714;51.332;12.406;2024-03-02T13:48:09;11.10;;;6.45;;
40983;SDS011;26714;51.332;12.406;2024-03-02T13:50:38;10.43;;;5.93;;
40983;SDS011;26714;51.332;12.406;2024-03-02T13:53:15;10.48;;;6.57;;
40983;SDS011;26714;51.332;12.406;2024-03-02T13:55:55;11.00;;;5.93;;
40983;SDS011;26714;51.332;12.406;2024-03-02T13:58:33;8.48;;;5.30;;
40983;SDS011;26714;51.332;12.406;2024-03-02T14:03:33;9.25;;;4.97;;
40983;SDS011;26714;51.332;12.406;2024-03-02T14:06:06;9.02;;;5.50;;
40983;SDS011;26714;51.332;12.406;2024-03-02T14:08:50;9.55;;;5.45;;
40983;SDS011;26714;51.332;12.406;2024-03-02T14:11:36;12.70;;;5.80;;
40983;SDS011;26714;51.332;12.406;2024-03-02T14:14:16;8.13;;;5.07;;
40983;SDS011;26714;51.332;12.406;2024-03-02T14:27:02;7.35;;;4.88;;
40983;SDS011;26714;51.332;12.406;2024-03-02T14:29:45;283.38;;;33.45;;
40983;SDS011;26714;51.332;12.406;2024-03-02T14:33:39;11.05;;;4.57;;
40983;SDS011;26714;51.332;12.406;2024-03-02T14:36:16;6.93;;;4.38;;
40983;SDS011;26714;51.332;12.406;2024-03-02T14:39:03;11.05;;;4.80;;
40983;SDS011;26714;51.332;12.406;2024-03-02T14:41:52;7.75;;;4.05;;
40983;SDS011;26714;51.332;12.406;2024-03-02T14:44:35;7.65;;;4.35;;
40983;SDS011;26714;51.332;12.406;2024-03-02T14:47:13;7.65;;;3.78;;
40983;SDS011;26714;51.332;12.406;2024-03-02T14:49:57;8.18;;;4.65;;
40983;SDS011;26714;51.332;12.406;2024-03-02T14:52:25;7.05;;;4.45;;
40983;SDS011;26714;51.332;12.406;2024-03-02T14:55:03;10.02;;;4.03;;
40983;SDS011;26714;51.332;12.406;2024-03-02T14:57:48;6.72;;;3.58;;
40983;SDS011;26714;51.332;12.406;2024-03-02T15:00:27;6.20;;;3.70;;
40983;SDS011;26714;51.332;12.406;2024-03-02T15:03:04;7.78;;;3.60;;
40983;SDS011;26714;51.332;12.406;2024-03-02T15:05:46;7.40;;;3.80;;
40983;SDS011;26714;51.332;12.406;2024-03-02T15:08:31;6.68;;;3.88;;
40983;SDS011;26714;51.332;12.406;2024-03-02T15:11:03;10.27;;;3.80;;
40983;SDS011;26714;51.332;12.406;2024-03-02T15:14:17;5.47;;;3.20;;
40983;SDS011;26714;51.332;12.406;2024-03-02T15:17:00;7.93;;;3.70;;
40983;SDS011;26714;51.332;12.406;2024-03-02T15:19:35;8.18;;;3.80;;
40983;SDS011;26714;51.332;12.406;2024-03-02T15:22:07;9.95;;;3.78;;
40983;SDS011;26714;51.332;12.406;2024-03-02T15:27:21;9.63;;;4.35;;
40983;SDS011;26714;51.332;12.406;2024-03-02T15:29:53;6.82;;;3.83;;
40983;SDS011;26714;51.332;12.406;2024-03-02T15:32:29;7.07;;;4.10;;
40983;SDS011;26714;51.332;12.406;2024-03-02T15:35:46;7.28;;;3.83;;
40983;SDS011;26714;51.332;12.406;2024-03-02T15:38:43;6.78;;;3.78;;
40983;SDS011;26714;51.332;12.406;2024-03-02T15:41:12;14.85;;;4.95;;
40983;SDS011;26714;51.332;12.406;2024-03-02T15:44:04;12.07;;;5.60;;
40983;SDS011;26714;51.332;12.406;2024-03-02T15:46:47;11.27;;;5.50;;
40983;SDS011;26714;51.332;12.406;2024-03-02T15:49:21;9.43;;;4.30;;
40983;SDS011;26714;51.332;12.406;2024-03-02T15:52:03;11.98;;;6.57;;
40983;SDS011;26714;51.332;12.406;2024-03-02T15:58:02;13.30;;;6.75;;
40983;SDS011;26714;51.332;12.406;2024-03-02T16:00:36;13.95;;;6.80;;
40983;SDS011;26714;51.332;12.406;2024-03-02T16:03:25;13.13;;;5.70;;
40983;SDS011;26714;51.332;12.406;2024-03-02T16:06:04;8.43;;;4.07;;
40983;SDS011;26714;51.332;12.406;2024-03-02T16:08:38;11.63;;;5.75;;
40983;SDS011;26714;51.332;12.406;2024-03-02T16:11:18;10.73;;;4.72;;
40983;SDS011;26714;51.332;12.406;2024-03-02T16:13:49;10.82;;;4.72;;
40983;SDS011;26714;51.332;12.406;2024-03-02T16:16:22;10.35;;;4.95;;
40983;SDS011;26714;51.332;12.406;2024-03-02T16:18:50;10.85;;;5.10;;
40983;SDS011;26714;51.332;12.406;2024-03-02T16:21:22;12.57;;;5.45;;
40983;SDS011;26714;51.332;12.406;2024-03-02T16:23:56;9.55;;;4.82;;
40983;SDS011;26714;51.332;12.406;2024-03-02T16:26:34;11.15;;;4.90;;
40983;SDS011;26714;51.332;12.406;2024-03-02T16:29:10;10.30;;;6.05;;
40983;SDS011;26714;51.332;12.406;2024-03-02T16:31:40;13.48;;;6.20;;
40983;SDS011;26714;51.332;12.406;2024-03-02T16:34:10;13.38;;;6.53;;
40983;SDS011;26714;51.332;12.406;2024-03-02T16:36:43;14.70;;;6.28;;
40983;SDS011;26714;51.332;12.406;2024-03-02T16:39:10;14.80;;;6.75;;
40983;SDS011;26714;51.332;12.406;2024-03-02T16:41:41;11.43;;;6.40;;
40983;SDS011;26714;51.332;12.406;2024-03-02T16:44:22;12.70;;;6.60;;
40983;SDS011;26714;51.332;12.406;2024-03-02T16:46:53;14.68;;;6.47;;
40983;SDS011;26714;51.332;12.406;2024-03-02T16:49:22;14.05;;;6.30;;
40983;SDS011;26714;51.332;12.406;2024-03-02T16:51:52;13.70;;;6.32;;
40983;SDS011;26714;51.332;12.406;2024-03-02T16:54:21;15.32;;;7.43;;
40983;SDS011;26714;51.332;12.406;2024-03-02T16:56:50;14.05;;;7.90;;
40983;SDS011;26714;51.332;12.406;2024-03-02T16:59:18;14.90;;;8.02;;
40983;SDS011;26714;51.332;12.406;2024-03-02T17:01:48;16.55;;;8.50;;